createdAt,value
2022-11-03T00:02:26.867Z,60.03
2022-11-03T00:05:03.340Z,50.47
2022-11-03T00:07:29.997Z,48.28
2022-11-03T00:10:00.237Z,47.45
2022-11-03T00:12:30.129Z,55.20
2022-11-03T00:15:02.777Z,51.28
2022-11-03T00:17:31.337Z,60.30
2022-11-03T00:19:58.210Z,55.25
2022-11-03T00:22:32.127Z,52.75
2022-11-03T00:25:04.617Z,52.22
2022-11-03T00:27:31.570Z,49.85
2022-11-03T00:29:58.175Z,54.00
2022-11-03T00:32:24.843Z,48.72
2022-11-03T00:34:52.397Z,58.58
2022-11-03T00:37:19.032Z,56.40
2022-11-03T00:39:45.638Z,50.10
2022-11-03T00:42:17.761Z,50.38
2022-11-03T00:44:44.394Z,57.25
2022-11-03T00:47:11.084Z,60.90
2022-11-03T00:49:39.646Z,51.72
2022-11-03T00:52:11.349Z,58.75
2022-11-03T00:54:41.817Z,58.78
2022-11-03T00:57:17.255Z,66.45
2022-11-03T00:59:47.110Z,59.65
2022-11-03T01:02:13.967Z,63.63
2022-11-03T01:05:04.741Z,60.90
2022-11-03T01:07:31.558Z,64.07
2022-11-03T01:09:59.959Z,61.60
2022-11-03T01:12:27.909Z,59.15
2022-11-03T01:14:54.693Z,65.80
2022-11-03T01:17:34.311Z,62.78
2022-11-03T01:20:02.649Z,70.85
2022-11-03T01:22:30.609Z,60.70
2022-11-03T01:25:05.446Z,62.33
2022-11-03T01:27:35.169Z,63.88
2022-11-03T01:30:02.076Z,67.75
2022-11-03T01:32:29.686Z,58.60
2022-11-03T01:34:56.380Z,59.67
2022-11-03T01:37:27.143Z,73.63
2022-11-03T01:39:53.777Z,65.95
2022-11-03T01:42:20.504Z,61.35
2022-11-03T01:44:55.814Z,59.35
2022-11-03T01:47:35.313Z,63.05
2022-11-03T01:50:11.172Z,59.25
2022-11-03T01:52:58.699Z,68.28
2022-11-03T01:55:31.724Z,64.85
2022-11-03T01:58:02.959Z,59.15
2022-11-03T02:00:32.208Z,63.35
2022-11-03T02:03:00.141Z,68.65
2022-11-03T02:05:29.850Z,67.93
2022-11-03T02:08:14.259Z,64.95
2022-11-03T02:10:41.385Z,64.57
2022-11-03T02:13:19.759Z,65.70
2022-11-03T02:15:50.565Z,56.97
2022-11-03T02:18:23.935Z,61.77
2022-11-03T02:21:10.551Z,60.33
2022-11-03T02:24:15.068Z,56.25
2022-11-03T02:26:44.469Z,56.88
2022-11-03T02:29:12.450Z,61.25
2022-11-03T02:31:50.043Z,59.58
2022-11-03T02:34:31.602Z,57.45
2022-11-03T02:37:21.759Z,69.93
2022-11-03T02:39:58.512Z,64.30
2022-11-03T02:42:26.286Z,74.88
2022-11-03T02:45:01.085Z,71.95
2022-11-03T02:47:39.708Z,65.05
2022-11-03T02:50:10.612Z,64.78
2022-11-03T02:52:45.996Z,67.05
2022-11-03T02:55:45.877Z,68.72
2022-11-03T02:58:36.114Z,59.58
2022-11-03T03:01:15.276Z,74.35
2022-11-03T03:03:52.668Z,74.05
2022-11-03T03:06:38.168Z,75.07
2022-11-03T03:09:17.332Z,70.03
2022-11-03T03:11:51.208Z,69.32
2022-11-03T03:14:35.769Z,79.40
2022-11-03T03:17:37.472Z,74.15
2022-11-03T03:20:26.965Z,74.60
2022-11-03T03:23:30.174Z,80.35
2022-11-03T03:26:36.609Z,72.90
2022-11-03T03:29:22.163Z,81.15
2022-11-03T03:32:11.419Z,80.80
2022-11-03T03:34:44.702Z,73.38
2022-11-03T03:37:21.589Z,74.80
2022-11-03T03:40:07.049Z,77.30
2022-11-03T03:42:39.522Z,75.57
2022-11-03T03:45:08.662Z,71.82
2022-11-03T03:47:36.178Z,75.13
2022-11-03T03:50:07.718Z,79.03
2022-11-03T03:52:36.076Z,73.28
2022-11-03T03:55:06.826Z,78.50
2022-11-03T03:57:36.879Z,71.13
2022-11-03T04:00:10.315Z,72.53
2022-11-03T04:02:37.109Z,69.20
2022-11-03T04:05:04.305Z,70.35
2022-11-03T04:07:50.895Z,66.45
2022-11-03T04:10:19.927Z,69.18
2022-11-03T04:13:09.792Z,71.88
2022-11-03T04:15:59.193Z,75.55
2022-11-03T04:18:48.342Z,72.20
2022-11-03T04:21:38.834Z,78.32
2022-11-03T04:24:06.449Z,80.47
2022-11-03T04:26:33.209Z,70.85
2022-11-03T04:29:01.536Z,68.80
2022-11-03T04:31:45.024Z,85.97
2022-11-03T04:34:15.491Z,73.18
2022-11-03T04:36:42.071Z,73.63
2022-11-03T04:39:29.828Z,76.70
2022-11-03T04:42:10.612Z,78.93
2022-11-03T04:44:39.526Z,76.07
2022-11-03T04:47:13.632Z,82.18
2022-11-03T04:49:41.124Z,76.30
2022-11-03T04:52:19.031Z,75.40
2022-11-03T04:54:50.948Z,69.85
2022-11-03T04:57:27.283Z,74.47
2022-11-03T05:00:02.687Z,69.45
2022-11-03T05:02:41.724Z,68.35
2022-11-03T05:05:25.475Z,79.03
2022-11-03T05:08:08.728Z,63.83
2022-11-03T05:10:36.283Z,72.18
2022-11-03T05:13:03.128Z,74.85
2022-11-03T05:15:34.764Z,77.75
2022-11-03T05:18:22.549Z,63.50
2022-11-03T05:20:56.541Z,72.28
2022-11-03T05:23:27.145Z,70.07
2022-11-03T05:25:56.627Z,71.97
2022-11-03T05:28:39.042Z,66.97
2022-11-03T05:31:33.542Z,76.28
2022-11-03T05:34:23.270Z,73.13
2022-11-03T05:37:01.641Z,73.88
2022-11-03T05:39:46.464Z,76.50
2022-11-03T05:42:33.897Z,66.75
2022-11-03T05:45:24.909Z,76.78
2022-11-03T05:47:58.361Z,75.28
2022-11-03T05:50:28.164Z,74.72
2022-11-03T05:53:18.474Z,75.75
2022-11-03T05:55:48.515Z,76.75
2022-11-03T05:58:25.983Z,75.45
2022-11-03T06:00:53.466Z,74.50
2022-11-03T06:03:30.676Z,80.22
2022-11-03T06:06:02.464Z,76.07
2022-11-03T06:08:39.037Z,76.00
2022-11-03T06:11:15.814Z,73.35
2022-11-03T06:13:45.278Z,84.80
2022-11-03T06:16:22.271Z,78.13
2022-11-03T06:18:50.038Z,81.72
2022-11-03T06:21:24.650Z,80.35
2022-11-03T06:23:58.576Z,82.45
2022-11-03T06:26:33.512Z,79.55
2022-11-03T06:29:02.675Z,76.25
2022-11-03T06:31:37.340Z,80.93
2022-11-03T06:34:19.893Z,85.30
2022-11-03T06:36:57.333Z,77.78
2022-11-03T06:39:25.179Z,82.60
2022-11-03T06:41:55.809Z,82.30
2022-11-03T06:44:26.154Z,77.85
2022-11-03T06:47:07.991Z,77.43
2022-11-03T06:49:36.028Z,84.15
2022-11-03T06:52:23.606Z,78.28
2022-11-03T06:55:04.076Z,81.60
2022-11-03T06:57:35.362Z,82.55
2022-11-03T07:00:20.502Z,81.15
2022-11-03T07:02:56.292Z,81.82
2022-11-03T07:05:28.383Z,77.43
2022-11-03T07:07:59.795Z,81.57
2022-11-03T07:10:30.220Z,80.30
2022-11-03T07:13:07.434Z,90.97
2022-11-03T07:15:40.193Z,90.13
2022-11-03T07:18:29.729Z,87.32
2022-11-03T07:21:05.130Z,85.40
2022-11-03T07:23:31.922Z,87.53
2022-11-03T07:26:04.452Z,88.28
2022-11-03T07:28:38.958Z,87.15
2022-11-03T07:31:25.304Z,92.93
2022-11-03T07:33:58.629Z,90.25
2022-11-03T07:36:31.311Z,86.57
2022-11-03T07:39:04.611Z,93.88
2022-11-03T07:41:34.566Z,103.53
2022-11-03T07:44:02.299Z,95.60
2022-11-03T07:46:29.456Z,88.10
2022-11-03T07:49:04.122Z,97.13
2022-11-03T07:51:37.606Z,99.95
2022-11-03T07:54:21.308Z,88.00
2022-11-03T07:56:57.730Z,96.95
2022-11-03T07:59:38.809Z,94.38
2022-11-03T08:02:27.009Z,103.55
2022-11-03T08:04:58.915Z,99.32
2022-11-03T08:07:28.813Z,102.95
2022-11-03T08:09:56.111Z,96.63
2022-11-03T08:12:23.185Z,97.95
2022-11-03T08:14:50.055Z,102.57
2022-11-03T08:17:21.148Z,106.25
2022-11-03T08:19:48.041Z,103.90
2022-11-03T08:22:14.639Z,102.63
2022-11-03T08:24:41.328Z,105.15
2022-11-03T08:27:09.312Z,108.47
2022-11-03T08:29:37.979Z,110.88
2022-11-03T08:32:07.067Z,104.70
2022-11-03T08:34:44.469Z,110.03
2022-11-03T08:37:11.339Z,100.97
2022-11-03T08:39:40.301Z,110.43
2022-11-03T08:42:06.917Z,110.15
2022-11-03T08:44:33.494Z,103.75
2022-11-03T08:47:01.369Z,111.28
2022-11-03T08:49:28.678Z,117.18
2022-11-03T08:51:57.895Z,126.55
2022-11-03T08:54:24.686Z,129.23
2022-11-03T08:56:51.342Z,134.65
2022-11-03T08:59:20.810Z,132.50
2022-11-03T09:01:52.888Z,125.95
2022-11-03T09:04:19.792Z,132.88
2022-11-03T09:06:51.009Z,137.70
2022-11-03T09:12:07.113Z,145.95
2022-11-03T09:14:33.882Z,147.15
2022-11-03T09:19:28.214Z,144.90
2022-11-03T09:21:54.969Z,145.20
2022-11-03T09:24:29.332Z,146.13
2022-11-03T09:27:02.479Z,137.95
2022-11-03T09:29:51.567Z,147.82
2022-11-03T09:32:22.993Z,144.05
2022-11-03T09:34:55.266Z,146.50
2022-11-03T09:37:25.651Z,131.98
2022-11-03T09:39:52.551Z,136.32
2022-11-03T09:42:19.425Z,130.50
2022-11-03T09:44:50.471Z,138.10
2022-11-03T09:47:30.811Z,131.80
2022-11-03T09:49:58.872Z,149.60
2022-11-03T09:52:28.353Z,144.82
2022-11-03T09:54:57.126Z,150.70
2022-11-03T09:57:27.499Z,148.68
2022-11-03T10:00:02.353Z,149.43
2022-11-03T10:02:32.336Z,153.20
2022-11-03T10:05:10.985Z,149.57
2022-11-03T10:07:44.285Z,155.70
2022-11-03T10:10:20.610Z,151.85
2022-11-03T10:13:00.211Z,134.35
2022-11-03T10:15:30.137Z,148.68
2022-11-03T10:17:58.324Z,145.05
2022-11-03T10:20:25.111Z,144.80
2022-11-03T10:22:54.981Z,135.77
2022-11-03T10:25:38.952Z,137.25
2022-11-03T10:28:33.243Z,151.10
2022-11-03T10:31:26.442Z,146.82
2022-11-03T10:36:36.361Z,147.20
2022-11-03T10:39:31.356Z,130.90
2022-11-03T10:41:59.977Z,128.50
2022-11-03T10:44:34.056Z,137.20
2022-11-03T10:47:03.442Z,143.40
2022-11-03T10:49:42.435Z,155.68
2022-11-03T10:52:30.721Z,143.18
2022-11-03T10:54:59.776Z,139.52
2022-11-03T10:57:36.330Z,137.07
2022-11-03T11:00:04.134Z,134.18
2022-11-03T11:02:32.659Z,133.68
2022-11-03T11:05:02.335Z,131.00
2022-11-03T11:07:42.022Z,134.55
2022-11-03T11:10:20.201Z,168.40
2022-11-03T11:13:23.639Z,154.65
2022-11-03T11:15:54.315Z,149.13
2022-11-03T11:18:36.404Z,158.65
2022-11-03T11:21:30.774Z,162.45
2022-11-03T11:24:01.749Z,150.23
2022-11-03T11:26:47.299Z,142.82
2022-11-03T11:29:15.755Z,151.60
2022-11-03T11:31:43.675Z,147.35
2022-11-03T11:34:11.902Z,158.85
2022-11-03T11:36:50.375Z,148.48
2022-11-03T11:39:20.961Z,148.93
2022-11-03T11:42:14.196Z,142.43
2022-11-03T11:44:53.376Z,155.20
2022-11-03T11:47:23.190Z,145.13
2022-11-03T11:50:21.252Z,140.13
2022-11-03T11:52:58.436Z,136.30
2022-11-03T11:55:25.185Z,131.77
2022-11-03T11:57:53.637Z,131.30
2022-11-03T12:00:34.950Z,146.35
2022-11-03T12:05:38.975Z,142.52
2022-11-03T12:08:32.257Z,147.63
2022-11-03T12:11:04.836Z,154.30
2022-11-03T12:13:52.652Z,141.88
2022-11-03T12:16:41.169Z,137.95
2022-11-03T12:19:39.126Z,137.13
2022-11-03T12:22:09.288Z,147.60
2022-11-03T12:24:48.596Z,135.57
2022-11-03T12:27:24.764Z,142.10
2022-11-03T12:29:56.945Z,137.30
2022-11-03T12:32:33.949Z,133.75
2022-11-03T12:35:08.713Z,134.68
2022-11-03T12:37:41.202Z,129.85
2022-11-03T12:40:08.570Z,139.98
2022-11-03T12:42:35.387Z,135.82
2022-11-03T12:45:03.575Z,138.80
2022-11-03T12:47:33.649Z,152.05
2022-11-03T12:50:03.307Z,136.88
2022-11-03T12:52:31.617Z,135.13
2022-11-03T12:54:58.643Z,129.57
2022-11-03T12:57:25.527Z,134.30
2022-11-03T12:59:52.614Z,125.97
2022-11-03T13:02:19.642Z,124.68
2022-11-03T13:04:52.291Z,118.65
2022-11-03T13:07:24.983Z,119.80
2022-11-03T13:09:58.544Z,123.32
2022-11-03T13:12:35.308Z,116.57
2022-11-03T13:15:10.755Z,123.53
2022-11-03T13:17:59.691Z,109.90
2022-11-03T13:20:24.675Z,119.68
2022-11-03T13:22:51.663Z,131.70
2022-11-03T13:25:18.998Z,128.95
2022-11-03T13:27:49.137Z,124.85
2022-11-03T13:30:18.937Z,132.98
2022-11-03T13:32:48.564Z,110.40
2022-11-03T13:35:19.948Z,125.15
2022-11-03T13:37:46.891Z,117.20
2022-11-03T13:40:35.858Z,113.43
2022-11-03T13:43:01.670Z,111.25
2022-11-03T13:45:30.017Z,116.80
2022-11-03T13:48:52.485Z,120.60
2022-11-03T13:50:44.763Z,125.30
2022-11-03T13:56:05.266Z,138.00
2022-11-03T14:01:26.166Z,123.93
2022-11-03T14:06:40.409Z,127.45
2022-11-03T14:09:07.465Z,118.45
2022-11-03T14:11:55.808Z,118.63
2022-11-03T14:14:29.394Z,118.47
2022-11-03T14:16:57.014Z,121.13
2022-11-03T14:19:33.351Z,118.13
2022-11-03T14:22:06.433Z,124.53
2022-11-03T14:24:34.019Z,133.82
2022-11-03T14:27:02.359Z,113.57
2022-11-03T14:29:37.430Z,113.93
2022-11-03T14:32:05.675Z,124.70
2022-11-03T14:34:37.428Z,125.10
2022-11-03T14:37:06.769Z,128.38
2022-11-03T14:39:33.641Z,119.57
2022-11-03T14:42:04.255Z,112.38
2022-11-03T14:44:44.407Z,113.07
2022-11-03T14:47:13.368Z,122.63
2022-11-03T14:49:40.639Z,117.55
2022-11-03T14:52:07.974Z,125.00
2022-11-03T14:54:38.909Z,128.75
2022-11-03T14:57:06.199Z,128.25
2022-11-03T14:59:37.676Z,122.78
2022-11-03T15:02:06.197Z,112.70
2022-11-03T15:04:33.728Z,128.75
2022-11-03T15:07:07.220Z,117.20
2022-11-03T15:09:37.447Z,118.82
2022-11-03T15:12:05.563Z,124.22
2022-11-03T15:14:32.526Z,130.20
2022-11-03T15:17:03.477Z,111.82
2022-11-03T15:19:34.183Z,121.43
2022-11-03T15:22:04.902Z,111.03
2022-11-03T15:27:20.973Z,120.18
2022-11-03T15:29:47.841Z,112.95
2022-11-03T15:32:17.115Z,109.53
2022-11-03T15:34:44.016Z,106.28
2022-11-03T15:37:11.595Z,107.13
2022-11-03T15:39:42.115Z,105.90
2022-11-03T15:42:13.789Z,101.13
2022-11-03T15:47:10.488Z,114.20
2022-11-03T15:49:39.460Z,107.35
2022-11-03T15:52:06.792Z,102.57
2022-11-03T15:54:36.255Z,104.38
2022-11-03T15:57:09.932Z,105.35
2022-11-03T15:59:40.073Z,101.70
2022-11-03T16:02:14.238Z,95.20
2022-11-03T16:04:54.998Z,98.00
2022-11-03T16:07:33.498Z,97.78
2022-11-03T16:10:06.598Z,101.30
2022-11-03T16:12:41.895Z,100.47
2022-11-03T16:15:09.563Z,93.65
2022-11-03T16:17:39.112Z,96.85
2022-11-03T16:20:13.654Z,92.70
2022-11-03T16:22:40.675Z,99.15
2022-11-03T16:25:12.349Z,93.10
2022-11-03T16:27:43.575Z,98.15
2022-11-03T16:30:11.736Z,88.07
2022-11-03T16:32:38.421Z,93.13
2022-11-03T16:35:22.162Z,95.35
2022-11-03T16:37:52.032Z,95.70
2022-11-03T16:40:19.849Z,100.47
2022-11-03T16:42:49.161Z,95.40
2022-11-03T16:45:26.704Z,116.28
2022-11-03T16:47:55.780Z,105.10
2022-11-03T16:50:22.485Z,110.35
2022-11-03T16:52:51.042Z,98.50
2022-11-03T16:55:19.120Z,105.45
2022-11-03T16:57:50.028Z,106.60
2022-11-03T17:02:52.287Z,94.43
2022-11-03T17:05:21.029Z,93.75
2022-11-03T17:07:53.266Z,102.13
2022-11-03T17:10:23.162Z,90.38
2022-11-03T17:12:50.433Z,103.55
2022-11-03T17:15:21.348Z,91.93
2022-11-03T17:17:47.995Z,92.82
2022-11-03T17:20:16.356Z,100.45
2022-11-03T17:22:46.244Z,107.10
2022-11-03T17:25:15.822Z,102.38
2022-11-03T17:28:03.594Z,107.22
2022-11-03T17:30:35.135Z,97.53
2022-11-03T17:33:07.158Z,103.90
2022-11-03T17:35:42.342Z,103.13
2022-11-03T17:38:16.420Z,103.78
2022-11-03T17:40:46.166Z,116.78
2022-11-03T17:43:21.728Z,106.47
2022-11-03T17:45:49.134Z,116.47
2022-11-03T17:48:16.132Z,108.05
2022-11-03T17:50:46.963Z,110.78
2022-11-03T17:53:34.257Z,104.47
2022-11-03T17:58:52.432Z,115.93
2022-11-03T18:01:25.119Z,113.20
2022-11-03T18:03:59.593Z,122.72
2022-11-03T18:06:26.876Z,123.88
2022-11-03T18:08:56.142Z,112.47
2022-11-03T18:11:52.932Z,115.95
2022-11-03T18:14:20.660Z,118.05
2022-11-03T18:16:48.464Z,117.18
2022-11-03T18:19:17.167Z,115.07
2022-11-03T18:21:47.831Z,117.05
2022-11-03T18:24:24.955Z,127.00
2022-11-03T18:26:51.843Z,129.30
2022-11-03T18:29:19.493Z,123.18
2022-11-03T18:31:51.136Z,127.38
2022-11-03T18:36:55.398Z,125.13
2022-11-03T18:39:27.754Z,118.28
2022-11-03T18:42:03.312Z,125.20
2022-11-03T18:44:34.621Z,129.40
2022-11-03T18:47:01.700Z,127.93
2022-11-03T18:49:34.333Z,129.00
2022-11-03T18:52:10.648Z,131.98
2022-11-03T18:54:50.501Z,131.70
2022-11-03T18:57:26.661Z,133.40
2022-11-03T18:59:53.308Z,138.25
2022-11-03T19:02:23.129Z,135.68
2022-11-03T19:04:50.412Z,140.60
2022-11-03T19:07:29.903Z,145.73
2022-11-03T19:10:00.244Z,146.02
2022-11-03T19:12:30.597Z,139.65
2022-11-03T19:15:00.204Z,137.15
2022-11-03T19:17:30.790Z,128.32
2022-11-03T19:20:00.474Z,131.45
2022-11-03T19:22:27.122Z,139.35
2022-11-03T19:24:57.040Z,133.77
2022-11-03T19:27:31.334Z,132.55
2022-11-03T19:30:00.501Z,129.15
2022-11-03T19:32:31.740Z,146.65
2022-11-03T19:35:06.911Z,143.20
2022-11-03T19:37:36.097Z,139.00
2022-11-03T19:40:14.690Z,131.93
2022-11-03T19:42:41.471Z,144.68
2022-11-03T19:45:14.858Z,152.85
2022-11-03T19:48:10.725Z,137.43
2022-11-03T19:50:36.785Z,140.27
2022-11-03T19:53:06.218Z,144.05
2022-11-03T19:55:38.277Z,139.15
2022-11-03T19:58:18.167Z,138.30
2022-11-03T20:00:52.226Z,133.43
2022-11-03T20:03:23.232Z,140.68
2022-11-03T20:05:58.732Z,145.75
2022-11-03T20:08:29.046Z,141.55
2022-11-03T20:11:01.030Z,145.05
2022-11-03T20:13:40.980Z,141.93
2022-11-03T20:16:21.422Z,136.73
2022-11-03T20:18:49.079Z,137.60
2022-11-03T20:21:38.249Z,149.20
2022-11-03T20:24:07.959Z,132.07
2022-11-03T20:26:37.481Z,145.10
2022-11-03T20:29:12.291Z,147.32
2022-11-03T20:31:49.784Z,139.02
2022-11-03T20:34:18.827Z,153.88
2022-11-03T20:36:48.794Z,143.85
2022-11-03T20:39:18.784Z,146.02
2022-11-03T20:41:48.442Z,147.27
2022-11-03T20:44:30.251Z,153.88
2022-11-03T20:49:24.029Z,159.52
2022-11-03T20:51:58.288Z,152.07
2022-11-03T20:54:35.175Z,162.43
2022-11-03T20:57:03.904Z,145.43
2022-11-03T20:59:34.612Z,146.68
2022-11-03T21:02:10.708Z,149.07
2022-11-03T21:04:45.234Z,149.82
2022-11-03T21:07:13.690Z,139.82
2022-11-03T21:09:43.902Z,157.10
2022-11-03T21:12:13.946Z,143.25
2022-11-03T21:15:04.314Z,148.40
2022-11-03T21:17:54.525Z,168.63
2022-11-03T21:20:25.105Z,152.57
2022-11-03T21:22:55.194Z,146.07
2022-11-03T21:25:25.264Z,149.45
2022-11-03T21:27:54.232Z,151.50
2022-11-03T21:30:21.954Z,144.38
2022-11-03T21:32:48.793Z,154.27
2022-11-03T21:35:24.726Z,146.52
2022-11-03T21:37:52.407Z,148.68
2022-11-03T21:40:21.832Z,144.45
2022-11-03T21:43:09.873Z,135.38
2022-11-03T21:45:42.177Z,132.15
2022-11-03T21:48:28.398Z,136.93
2022-11-03T21:51:15.548Z,127.28
2022-11-03T21:53:42.292Z,135.48
2022-11-03T21:56:14.354Z,138.85
2022-11-03T21:58:42.864Z,133.27
2022-11-03T22:01:20.348Z,122.93
2022-11-03T22:03:47.946Z,130.40
2022-11-03T22:06:18.325Z,136.25
2022-11-03T22:08:45.122Z,131.45
2022-11-03T22:11:23.952Z,135.77
2022-11-03T22:13:58.985Z,131.57
2022-11-03T22:16:40.058Z,136.20
2022-11-03T22:19:30.005Z,148.65
2022-11-03T22:22:15.819Z,138.48
2022-11-03T22:25:03.971Z,140.48
2022-11-03T22:27:37.762Z,132.25
2022-11-03T22:30:24.134Z,132.70
2022-11-03T22:32:53.270Z,134.00
2022-11-03T22:35:39.776Z,130.43
2022-11-03T22:38:13.595Z,131.63
2022-11-03T22:40:59.859Z,142.68
2022-11-03T22:43:47.969Z,130.05
2022-11-03T22:46:18.507Z,135.50
2022-11-03T22:48:45.207Z,123.78
2022-11-03T22:51:18.606Z,121.57
2022-11-03T22:54:05.569Z,131.68
2022-11-03T22:56:32.693Z,131.75
2022-11-03T22:58:59.399Z,124.50
2022-11-03T23:01:32.387Z,140.38
2022-11-03T23:03:59.095Z,123.43
2022-11-03T23:06:27.697Z,119.63
2022-11-03T23:08:58.458Z,117.13
2022-11-03T23:11:35.834Z,138.13
2022-11-03T23:14:09.050Z,122.70
2022-11-03T23:16:43.966Z,121.78
2022-11-03T23:19:38.004Z,133.23
2022-11-03T23:22:06.054Z,119.75
2022-11-03T23:24:54.308Z,127.72
2022-11-03T23:27:21.026Z,127.07
2022-11-03T23:29:47.682Z,115.45
2022-11-03T23:32:14.452Z,124.38
2022-11-03T23:34:41.161Z,117.40
2022-11-03T23:37:07.976Z,119.65
2022-11-03T23:39:35.979Z,126.93
2022-11-03T23:42:06.124Z,116.32
2022-11-03T23:44:52.896Z,114.88
2022-11-03T23:47:43.682Z,119.88
2022-11-03T23:50:10.435Z,123.88
2022-11-03T23:52:37.254Z,115.57
2022-11-03T23:55:07.615Z,103.50
2022-11-03T23:57:52.901Z,108.90
